Time;durP1;ratioP1;P1;durP2;ratioP2;P2;SDS_P1;SDS_P2;PMS_P1;PMS_P2;Temp;Humidity;BMP_temperature;BMP_pressure;BME280_temperature;BME280_humidity;BME280_pressure;Samples;Min_cycle;Max_cycle;Signal;HPM_P1;HPM_P2
2023/01/01 00:01:40;;;;;;;12.52;4.35;;;;;;;14.60;60.36;100839.69;5113228;28;20059;-79
2023/01/01 00:04:09;;;;;;;11.25;4.40;;;;;;;14.58;60.80;100817.88;5113658;28;20027;-79
2023/01/01 00:06:35;;;;;;;12.45;4.93;;;;;;;14.69;58.80;100835.84;5109890;28;20043;-78
2023/01/01 00:11:45;;;;;;;11.80;3.97;;;;;;;14.58;58.94;100836.25;5100148;28;20046;-79
2023/01/01 00:14:10;;;;;;;11.60;4.35;;;;;;;14.65;57.51;100842.97;5112509;28;20028;-79
2023/01/01 00:16:35;;;;;;;12.80;5.25;;;;;;;14.66;57.86;100834.19;5113129;28;20031;-78
2023/01/01 00:19:01;;;;;;;15.75;4.35;;;;;;;14.68;57.22;100853.34;5113658;28;20035;-78
2023/01/01 00:21:26;;;;;;;14.77;4.57;;;;;;;14.63;58.90;100841.31;5112838;28;20028;-79
2023/01/01 00:23:52;;;;;;;13.32;4.55;;;;;;;14.52;59.83;100847.00;5113974;28;20028;-79
2023/01/01 00:26:17;;;;;;;11.50;4.35;;;;;;;14.53;57.76;100832.97;5112994;28;20467;-79
2023/01/01 00:28:44;;;;;;;13.35;4.97;;;;;;;14.60;57.20;100854.56;5103782;28;20055;-79
2023/01/01 00:31:12;;;;;;;15.70;4.53;;;;;;;14.68;56.41;100853.34;5113242;28;20039;-79
2023/01/01 00:33:37;;;;;;;6.78;4.05;;;;;;;14.60;57.77;100809.97;5112893;28;20050;-79
2023/01/01 00:36:07;;;;;;;7.93;3.83;;;;;;;14.43;59.52;100842.09;5111533;28;20110;-79
2023/01/01 00:38:32;;;;;;;13.70;4.28;;;;;;;14.17;63.60;100827.38;5112537;28;20059;-79
2023/01/01 00:40:58;;;;;;;12.95;4.30;;;;;;;14.02;60.85;100837.50;5110765;28;20043;-79
2023/01/01 00:43:23;;;;;;;12.35;3.67;;;;;;;13.97;61.43;100849.09;5111646;28;20065;-79
2023/01/01 00:45:51;;;;;;;9.43;3.60;;;;;;;13.96;61.78;100857.84;5112389;28;20035;-79
2023/01/01 00:48:17;;;;;;;11.18;3.65;;;;;;;13.98;62.58;100838.53;5112138;28;20103;-78
2023/01/01 00:50:43;;;;;;;13.38;4.18;;;;;;;13.99;63.69;100829.75;5111397;28;20023;-78
2023/01/01 00:53:08;;;;;;;11.32;3.97;;;;;;;14.04;61.31;100835.69;5113030;28;20011;-79
2023/01/01 00:55:34;;;;;;;10.23;3.15;;;;;;;14.15;60.33;100837.06;5112476;28;20027;-78
2023/01/01 00:57:59;;;;;;;10.40;3.28;;;;;;;14.16;59.66;100826.53;5112829;28;20048;-79
2023/01/01 01:00:24;;;;;;;8.98;3.60;;;;;;;14.08;59.89;100823.31;5109924;28;20114;-79
2023/01/01 01:02:49;;;;;;;11.23;3.50;;;;;;;14.22;59.69;100849.00;5112318;28;20030;-79
2023/01/01 01:05:15;;;;;;;13.85;3.80;;;;;;;14.35;58.91;100845.00;5112805;28;20027;-79
2023/01/01 01:07:40;;;;;;;8.63;3.00;;;;;;;14.40;58.33;100855.31;5113014;28;20024;-79
2023/01/01 01:10:07;;;;;;;8.07;2.83;;;;;;;14.43;58.59;100839.47;5110924;28;20014;-79
2023/01/01 01:12:33;;;;;;;10.55;2.92;;;;;;;14.45;58.57;100858.59;5112472;28;20024;-79
2023/01/01 01:14:59;;;;;;;17.25;3.50;;;;;;;14.44;58.64;100834.16;5112925;28;20110;-78
2023/01/01 01:17:24;;;;;;;9.43;3.10;;;;;;;14.32;59.29;100844.25;5111208;28;20123;-78
2023/01/01 01:19:49;;;;;;;10.88;2.90;;;;;;;14.34;59.88;100850.31;5112114;28;20028;-79
2023/01/01 01:22:15;;;;;;;12.68;3.00;;;;;;;14.26;60.36;100835.75;5110539;28;20106;-79
2023/01/01 01:24:40;;;;;;;6.53;2.35;;;;;;;14.22;59.82;100847.28;5102575;28;20036;-78
2023/01/01 01:27:05;;;;;;;7.07;2.70;;;;;;;14.17;60.54;100866.69;5091957;28;20091;-78
2023/01/01 01:29:30;;;;;;;12.55;3.75;;;;;;;14.08;61.75;100860.03;5090523;28;20062;-79
2023/01/01 01:31:56;;;;;;;14.02;3.15;;;;;;;14.09;59.25;100856.47;5089074;28;20032;-78
2023/01/01 01:34:21;;;;;;;11.35;2.97;;;;;;;14.01;60.08;100855.94;5088516;28;20020;-79
2023/01/01 01:36:47;;;;;;;5.97;2.67;;;;;;;14.01;58.70;100867.25;5087913;28;20540;-79
2023/01/01 01:39:12;;;;;;;9.07;3.15;;;;;;;14.03;59.04;100875.09;5090704;28;20016;-79
2023/01/01 01:41:38;;;;;;;7.07;2.70;;;;;;;14.00;59.20;100870.81;5092379;28;20040;-79
2023/01/01 01:44:41;;;;;;;11.50;3.28;;;;;;;13.95;60.54;100862.25;5092085;28;20073;-79
2023/01/01 01:47:16;;;;;;;8.45;3.33;;;;;;;13.94;58.85;100871.03;5092528;28;20115;-79
2023/01/01 01:49:43;;;;;;;7.95;2.70;;;;;;;13.91;59.78;100872.91;5094783;28;20035;-78
2023/01/01 01:52:09;;;;;;;8.05;3.08;;;;;;;13.91;59.93;100889.50;5095227;28;20020;-79
2023/01/01 01:54:35;;;;;;;10.27;2.90;;;;;;;13.86;60.78;100885.31;5096131;28;20391;-79
2023/01/01 01:57:04;;;;;;;11.18;2.75;;;;;;;13.77;61.05;100892.63;5094184;28;20367;-79
2023/01/01 01:59:34;;;;;;;11.07;2.80;;;;;;;13.74;61.43;100902.34;5095419;28;20032;-79
2023/01/01 02:01:59;;;;;;;9.52;2.63;;;;;;;13.76;60.61;100916.22;5084858;28;20400;-79
2023/01/01 02:04:25;;;;;;;6.30;2.70;;;;;;;13.74;61.25;100897.97;5094995;28;20114;-79
2023/01/01 02:06:51;;;;;;;10.88;2.85;;;;;;;13.69;61.22;100885.94;5093809;28;20501;-78
2023/01/01 02:09:17;;;;;;;12.30;2.75;;;;;;;13.75;59.93;100909.28;5094554;28;20029;-79
2023/01/01 02:11:42;;;;;;;7.22;2.55;;;;;;;13.75;60.52;100915.38;5096548;28;20032;-78
2023/01/01 02:14:08;;;;;;;9.07;2.70;;;;;;;13.78;60.61;100904.78;5089038;28;20107;-78
2023/01/01 02:17:06;;;;;;;10.15;2.70;;;;;;;13.78;61.89;100914.44;5094594;28;20122;-78
2023/01/01 02:20:01;;;;;;;6.35;3.10;;;;;;;13.71;62.36;100916.41;5094482;28;20614;-78
2023/01/01 02:23:04;;;;;;;9.35;2.78;;;;;;;13.70;61.73;100912.09;5087521;28;20030;-78
2023/01/01 02:25:48;;;;;;;11.07;2.65;;;;;;;13.67;62.07;100906.06;5070143;28;20040;-78
2023/01/01 02:28:22;;;;;;;;;;;;;;;13.65;61.51;100928.88;5106248;28;20168;-78
2023/01/01 02:30:49;;;;;;;7.40;2.88;;;;;;;13.63;61.28;100923.66;5112387;28;19908;-78
2023/01/01 02:33:19;;;;;;;5.38;2.65;;;;;;;13.61;62.11;100922.03;5113510;28;20043;-78
2023/01/01 02:35:51;;;;;;;10.82;3.08;;;;;;;13.59;60.80;100916.81;5114510;28;20031;-78
2023/01/01 02:38:36;;;;;;;14.68;3.15;;;;;;;13.61;62.02;100909.78;5114847;28;20045;-78
2023/01/01 02:41:07;;;;;;;11.77;2.33;;;;;;;13.53;62.10;100928.38;5115156;28;20020;-78
2023/01/01 02:43:32;;;;;;;8.30;2.65;;;;;;;13.54;60.71;100924.00;5113372;28;20028;-78
2023/01/01 02:45:57;;;;;;;6.18;2.42;;;;;;;13.59;60.38;100929.94;5115811;28;20023;-78
2023/01/01 02:48:42;;;;;;;8.80;2.35;;;;;;;13.57;62.24;100895.09;5113957;28;20207;-78
2023/01/01 02:51:36;;;;;;;7.18;2.63;;;;;;;13.58;61.25;100910.75;5114690;28;20024;-78
2023/01/01 02:54:16;;;;;;;6.60;2.22;;;;;;;13.54;63.63;100913.53;5113067;28;20432;-78
2023/01/01 02:57:01;;;;;;;6.30;2.15;;;;;;;13.54;61.81;100914.38;5113300;28;20037;-78
2023/01/01 03:03:16;;;;;;;5.10;2.30;;;;;;;13.51;63.03;100931.97;5060254;28;20506;-78
2023/01/01 03:06:25;;;;;;;6.88;2.33;;;;;;;13.49;63.14;100932.00;5103149;28;20135;-78
2023/01/01 03:08:59;;;;;;;4.82;1.88;;;;;;;13.50;62.80;100959.91;5114419;28;20725;-78
2023/01/01 03:11:36;;;;;;;8.43;2.70;;;;;;;13.53;62.80;100945.84;5114025;28;20075;-78
2023/01/01 03:14:19;;;;;;;8.73;4.15;;;;;;;13.51;63.31;100945.91;5113730;28;20019;-78
2023/01/01 03:16:55;;;;;;;8.90;2.40;;;;;;;13.41;65.41;100939.28;5114589;28;20031;-78
2023/01/01 03:19:24;;;;;;;6.93;2.33;;;;;;;13.34;64.25;100942.97;5114705;28;20028;-78
2023/01/01 03:22:00;;;;;;;6.82;2.38;;;;;;;13.35;64.01;100935.09;5113990;28;20150;-78
2023/01/01 03:24:31;;;;;;;8.88;2.42;;;;;;;13.32;64.64;100943.06;5113719;28;20055;-78
2023/01/01 03:27:03;;;;;;;5.78;2.05;;;;;;;13.33;64.43;100926.41;5115070;28;20028;-78
2023/01/01 03:29:32;;;;;;;5.15;2.17;;;;;;;13.40;64.45;100948.03;5113973;28;20510;-78
2023/01/01 03:32:01;;;;;;;5.68;2.50;;;;;;;13.42;64.59;100955.84;5112677;28;20077;-78
2023/01/01 03:34:37;;;;;;;8.15;2.25;;;;;;;13.41;65.04;100938.44;5114637;28;20474;-79
2023/01/01 03:37:07;;;;;;;8.88;2.60;;;;;;;13.46;64.39;100936.50;5113093;28;20046;-78
2023/01/01 03:39:36;;;;;;;11.27;2.30;;;;;;;13.44;65.23;100948.78;5111946;28;20023;-79
2023/01/01 03:42:25;;;;;;;7.72;2.38;;;;;;;13.46;65.83;100945.19;5114322;28;20467;-78
2023/01/01 03:44:57;;;;;;;8.85;2.10;;;;;;;13.41;65.25;100955.00;5102321;28;20032;-79
2023/01/01 03:47:23;;;;;;;4.18;2.08;;;;;;;13.40;64.68;100962.88;5114078;28;20028;-79
2023/01/01 03:49:49;;;;;;;8.52;2.13;;;;;;;13.45;64.22;100968.84;5113597;28;20031;-79
2023/01/01 03:52:25;;;;;;;6.85;2.65;;;;;;;13.44;65.57;100960.13;5110253;28;20547;-79
2023/01/01 03:55:14;;;;;;;5.88;2.17;;;;;;;13.42;65.17;100974.19;5101182;28;20094;-79
2023/01/01 03:58:02;;;;;;;7.35;2.38;;;;;;;13.42;65.64;100964.56;5110308;28;20118;-78
2023/01/01 04:00:33;;;;;;;8.48;2.30;;;;;;;13.40;65.79;100962.88;5112830;28;20114;-78
2023/01/01 04:03:07;;;;;;;7.72;2.55;;;;;;;13.35;65.97;100978.75;5111922;28;20031;-78
2023/01/01 04:05:37;;;;;;;8.15;2.30;;;;;;;13.34;66.42;100990.13;5104011;28;20032;-78
2023/01/01 04:08:03;;;;;;;8.90;2.20;;;;;;;13.35;66.04;100984.84;5112517;28;20386;-79
2023/01/01 04:10:31;;;;;;;11.77;2.50;;;;;;;13.39;66.34;100985.59;5112047;28;20428;-79
2023/01/01 04:12:57;;;;;;;5.20;2.58;;;;;;;13.35;67.39;100984.84;5113290;28;20031;-78
2023/01/01 04:15:25;;;;;;;4.25;2.15;;;;;;;13.31;68.14;100987.63;5111719;28;20038;-79
2023/01/01 04:17:52;;;;;;;4.72;2.10;;;;;;;13.31;68.00;100991.09;5112510;28;20031;-78
2023/01/01 04:20:17;;;;;;;7.85;2.55;;;;;;;13.31;67.20;100982.38;5111123;28;20015;-78
2023/01/01 04:22:43;;;;;;;10.00;2.80;;;;;;;13.34;67.54;101000.59;5113639;28;20022;-79
2023/01/01 04:25:09;;;;;;;5.45;2.05;;;;;;;13.33;67.24;100983.19;5111087;28;20134;-78
2023/01/01 04:27:35;;;;;;;6.53;2.20;;;;;;;13.32;67.67;100984.94;5090944;28;20032;-78
2023/01/01 04:30:01;;;;;;;7.13;2.83;;;;;;;13.33;67.59;100976.19;5093642;28;20088;-78
2023/01/01 04:32:26;;;;;;;6.65;2.65;;;;;;;13.29;68.56;100971.94;5094484;28;20058;-79
2023/01/01 04:34:51;;;;;;;4.75;2.10;;;;;;;13.21;68.30;100981.81;5101323;28;20028;-78
2023/01/01 04:37:17;;;;;;;7.72;2.38;;;;;;;13.20;69.31;100985.31;5106876;28;20101;-78
2023/01/01 04:39:42;;;;;;;7.03;2.50;;;;;;;13.19;69.12;100995.84;5093077;28;20036;-78
2023/01/01 04:42:08;;;;;;;4.32;2.00;;;;;;;13.17;69.55;101000.25;5092335;28;20020;-78
2023/01/01 04:44:33;;;;;;;6.25;2.83;;;;;;;13.10;70.00;101003.06;5098368;28;20110;-79
2023/01/01 04:46:58;;;;;;;11.55;2.53;;;;;;;13.09;70.73;101011.81;5101185;28;20457;-79
2023/01/01 04:49:24;;;;;;;6.38;2.15;;;;;;;13.10;70.76;101007.44;5091754;28;20028;-79
2023/01/01 04:51:49;;;;;;;10.88;2.65;;;;;;;13.11;70.38;101009.16;5091823;28;20035;-78
2023/01/01 04:54:14;;;;;;;7.22;2.80;;;;;;;13.07;71.40;100999.69;5099104;28;20464;-78
2023/01/01 04:56:40;;;;;;;8.90;2.35;;;;;;;13.07;71.26;101013.63;5091415;28;20548;-78
2023/01/01 04:59:05;;;;;;;8.75;2.25;;;;;;;13.09;71.54;101021.44;5092868;28;20154;-79
2023/01/01 05:01:31;;;;;;;6.28;2.15;;;;;;;13.04;71.11;101002.41;5094869;28;20050;-78
2023/01/01 05:03:57;;;;;;;7.55;3.55;;;;;;;13.07;71.44;101018.00;5100703;28;20016;-78
2023/01/01 05:06:24;;;;;;;5.75;2.63;;;;;;;13.14;71.13;101032.59;5094473;28;20028;-79
2023/01/01 05:08:51;;;;;;;10.05;2.40;;;;;;;13.11;71.38;101035.31;5092079;28;20024;-78
2023/01/01 05:11:19;;;;;;;9.55;2.17;;;;;;;13.14;72.93;101043.06;5092154;28;20027;-78
2023/01/01 05:13:47;;;;;;;8.10;1.98;;;;;;;13.08;72.47;101027.59;5091641;28;20032;-78
2023/01/01 05:16:17;;;;;;;4.68;2.17;;;;;;;13.09;72.61;101034.53;5093893;28;20085;-79
2023/01/01 05:18:42;;;;;;;8.93;2.47;;;;;;;13.10;72.63;101042.31;5092664;28;20097;-78
2023/01/01 05:21:17;;;;;;;7.78;2.47;;;;;;;13.09;73.40;101050.22;5100542;28;20348;-78
2023/01/01 05:23:43;;;;;;;10.15;2.53;;;;;;;13.05;72.71;101064.31;5088730;28;20050;-78
2023/01/01 05:26:10;;;;;;;5.40;2.28;;;;;;;13.06;73.86;101081.72;5103542;28;20419;-78
2023/01/01 05:28:36;;;;;;;5.30;2.20;;;;;;;13.02;74.04;101086.19;5083496;28;20537;-77
2023/01/01 05:31:11;;;;;;;10.10;2.67;;;;;;;13.04;74.00;101100.09;5091710;28;20055;-78
2023/01/01 05:33:36;;;;;;;8.38;2.58;;;;;;;12.96;74.70;101091.63;5091313;28;20471;-78
2023/01/01 05:36:03;;;;;;;7.35;2.58;;;;;;;12.94;74.91;101096.03;5092061;28;20027;-78
2023/01/01 05:38:29;;;;;;;10.40;2.80;;;;;;;12.93;74.90;101099.56;5091170;28;20034;-78
2023/01/01 05:40:55;;;;;;;9.80;2.60;;;;;;;12.88;74.97;101115.41;5091957;28;20103;-78
2023/01/01 05:43:21;;;;;;;7.55;3.05;;;;;;;12.93;74.78;101104.78;5091643;28;20073;-78
2023/01/01 05:45:47;;;;;;;4.90;2.15;;;;;;;12.93;75.17;101106.56;5103202;28;20038;-78
2023/01/01 05:48:12;;;;;;;6.53;2.47;;;;;;;12.90;74.89;101110.09;5104014;28;20359;-78
2023/01/01 05:50:37;;;;;;;8.23;2.63;;;;;;;12.84;75.38;101113.75;5092027;28;20393;-79
2023/01/01 05:53:03;;;;;;;6.97;2.22;;;;;;;12.82;75.96;101120.81;5091618;28;20020;-78
2023/01/01 05:55:29;;;;;;;9.70;2.97;;;;;;;12.84;75.39;101118.97;5094249;28;20554;-78
2023/01/01 05:57:55;;;;;;;11.15;2.53;;;;;;;12.85;75.37;101125.94;5102522;28;20520;-78
2023/01/01 06:00:20;;;;;;;8.45;2.30;;;;;;;12.80;76.95;101130.44;5091028;28;20028;-78
2023/01/01 06:02:45;;;;;;;6.70;2.42;;;;;;;12.78;76.67;101128.75;5092125;28;20122;-78
2023/01/01 06:05:11;;;;;;;8.68;2.47;;;;;;;12.82;76.24;101144.34;5089880;28;20471;-78
2023/01/01 06:07:36;;;;;;;8.60;2.70;;;;;;;12.79;76.69;101136.59;5092665;28;20032;-78
2023/01/01 06:10:02;;;;;;;7.60;2.70;;;;;;;12.85;76.10;101140.75;5091639;28;20040;-78
2023/01/01 06:12:27;;;;;;;7.13;2.17;;;;;;;12.85;75.89;101146.88;5091248;28;20028;-78
2023/01/01 06:14:52;;;;;;;7.22;2.22;;;;;;;12.80;76.83;101147.91;5097589;28;20376;-78
2023/01/01 06:17:17;;;;;;;8.98;2.60;;;;;;;12.75;76.69;101144.53;5091656;28;20460;-78
2023/01/01 06:19:43;;;;;;;9.45;2.58;;;;;;;12.76;77.25;101160.22;5094290;28;20038;-78
2023/01/01 06:22:08;;;;;;;10.45;2.80;;;;;;;12.71;78.03;101154.22;5092538;28;20456;-78
2023/01/01 06:24:33;;;;;;;8.27;2.55;;;;;;;12.72;77.83;101155.97;5094119;28;20024;-78
2023/01/01 06:26:59;;;;;;;10.20;2.50;;;;;;;12.68;78.80;101184.84;5096902;28;20468;-78
2023/01/01 06:29:24;;;;;;;5.93;2.90;;;;;;;12.56;80.34;101194.75;5084997;28;20055;-78
2023/01/01 06:31:49;;;;;;;6.25;2.60;;;;;;;12.22;85.38;101214.78;5106779;28;20414;-78
2023/01/01 06:34:14;;;;;;;9.50;2.83;;;;;;;11.48;91.31;101162.47;5102297;28;20357;-77
2023/01/01 06:36:40;;;;;;;12.27;2.97;;;;;;;11.51;97.80;101231.16;5101833;28;20047;-78
2023/01/01 06:39:05;;;;;;;7.38;2.30;;;;;;;11.23;100.00;101235.19;5096847;28;20487;-77
2023/01/01 06:41:32;;;;;;;10.88;3.28;;;;;;;11.00;100.00;101237.41;5105798;28;20028;-78
2023/01/01 06:43:58;;;;;;;9.82;3.47;;;;;;;10.76;100.00;101239.59;5096922;28;20530;-78
2023/01/01 06:46:32;;;;;;;7.03;4.15;;;;;;;10.61;100.00;101254.63;5108862;28;20031;-78
2023/01/01 06:49:04;;;;;;;11.18;5.35;;;;;;;10.43;100.00;101261.88;5096681;28;20015;-78
2023/01/01 06:51:31;;;;;;;7.63;4.78;;;;;;;10.35;100.00;101262.88;5096045;28;20134;-77
2023/01/01 06:53:58;;;;;;;10.85;5.20;;;;;;;10.27;100.00;101250.84;5107585;28;20024;-77
2023/01/01 06:56:24;;;;;;;10.77;4.88;;;;;;;10.24;100.00;101276.91;5106298;28;20036;-77
2023/01/01 06:58:49;;;;;;;12.18;4.32;;;;;;;10.18;100.00;101286.56;5102589;28;20073;-78
2023/01/01 07:01:17;;;;;;;8.90;4.35;;;;;;;10.04;100.00;101278.94;5100580;28;20107;-78
2023/01/01 07:03:43;;;;;;;8.27;4.20;;;;;;;10.06;100.00;101288.44;5095073;28;20548;-78
2023/01/01 07:06:10;;;;;;;11.85;4.28;;;;;;;10.06;100.00;101277.16;5106497;28;20103;-78
2023/01/01 07:08:35;;;;;;;9.80;4.22;;;;;;;9.99;100.00;101291.16;5100767;28;20039;-78
2023/01/01 07:11:01;;;;;;;11.98;4.85;;;;;;;9.97;100.00;101286.00;5105937;28;20023;-78
2023/01/01 07:13:28;;;;;;;11.80;4.35;;;;;;;9.97;100.00;101299.00;5095769;28;20055;-78
2023/01/01 07:15:54;;;;;;;9.75;4.32;;;;;;;9.98;100.00;101300.72;5093717;28;20039;-78
2023/01/01 07:18:21;;;;;;;11.20;4.70;;;;;;;9.96;100.00;101301.63;5096156;28;20020;-78
2023/01/01 07:20:52;;;;;;;7.63;3.67;;;;;;;9.89;100.00;101287.81;5105446;28;20551;-78
2023/01/01 07:23:18;;;;;;;9.80;2.90;;;;;;;9.89;100.00;101305.19;5096561;28;20046;-78
2023/01/01 07:25:43;;;;;;;9.80;3.13;;;;;;;9.85;100.00;101301.78;5106908;28;20487;-78
2023/01/01 07:28:09;;;;;;;9.30;3.90;;;;;;;9.84;100.00;101300.91;5111117;27;20020;-78
2023/01/01 07:30:34;;;;;;;18.50;3.55;;;;;;;9.85;100.00;101304.38;5109960;28;20023;-78
2023/01/01 07:33:00;;;;;;;6.88;3.08;;;;;;;9.86;100.00;101306.09;5113466;28;20459;-77
2023/01/01 07:35:25;;;;;;;7.50;2.80;;;;;;;9.82;100.00;101318.28;5112344;28;20034;-78
2023/01/01 07:37:50;;;;;;;10.00;4.03;;;;;;;9.80;100.00;101320.03;5112514;28;20031;-77
2023/01/01 07:40:15;;;;;;;9.32;3.00;;;;;;;9.75;100.00;101310.59;5112794;28;20098;-78
2023/01/01 07:42:41;;;;;;;9.93;3.08;;;;;;;9.79;100.00;101330.50;5111972;28;20375;-78
2023/01/01 07:45:07;;;;;;;11.18;3.25;;;;;;;9.76;100.00;101322.72;5112469;28;20027;-78
2023/01/01 07:47:32;;;;;;;9.57;3.10;;;;;;;9.75;100.00;101332.28;5112487;28;20045;-78
2023/01/01 07:49:57;;;;;;;5.88;3.03;;;;;;;9.75;100.00;101344.44;5112308;28;20391;-78
2023/01/01 07:52:23;;;;;;;11.73;3.10;;;;;;;9.75;100.00;101342.69;5110966;28;20153;-78
2023/01/01 07:54:48;;;;;;;9.15;2.78;;;;;;;9.72;100.00;101341.88;5112881;28;20015;-79
2023/01/01 07:57:13;;;;;;;11.63;3.08;;;;;;;9.73;100.00;101340.97;5112025;28;20482;-79
2023/01/01 07:59:39;;;;;;;11.77;3.10;;;;;;;9.78;100.00;101344.41;5111777;28;20387;-79
2023/01/01 08:02:04;;;;;;;10.70;3.10;;;;;;;9.72;100.00;101357.50;5112874;28;20467;-79
2023/01/01 08:04:29;;;;;;;9.95;2.92;;;;;;;9.66;100.00;101366.22;5113407;28;20028;-81
2023/01/01 08:06:55;;;;;;;10.05;3.28;;;;;;;9.69;100.00;101389.63;5112701;28;20076;-78
2023/01/01 08:09:20;;;;;;;8.75;3.28;;;;;;;9.66;100.00;101405.28;5110767;28;20031;-78
2023/01/01 08:11:46;;;;;;;10.25;3.17;;;;;;;9.59;100.00;101396.66;5110405;28;20024;-78
2023/01/01 08:14:12;;;;;;;13.50;3.05;;;;;;;9.59;100.00;101396.66;5109254;28;20055;-78
2023/01/01 08:16:37;;;;;;;12.85;3.70;;;;;;;9.61;100.00;101400.13;5110128;28;20047;-79
2023/01/01 08:19:02;;;;;;;13.63;3.50;;;;;;;9.57;100.00;101395.81;5102794;28;20031;-79
2023/01/01 08:21:28;;;;;;;10.93;3.00;;;;;;;9.59;100.00;101396.66;5113053;28;20111;-79
2023/01/01 08:23:53;;;;;;;11.48;3.10;;;;;;;9.52;100.00;101392.41;5112562;28;20383;-79
2023/01/01 08:26:30;;;;;;;7.47;2.85;;;;;;;9.56;100.00;101407.09;5093419;28;20040;-79
2023/01/01 08:28:56;;;;;;;12.18;3.42;;;;;;;9.63;100.00;101404.44;5086846;28;20573;-79
2023/01/01 08:31:24;;;;;;;15.95;4.43;;;;;;;9.66;100.00;101401.81;5090647;28;20124;-79
2023/01/01 08:33:49;;;;;;;8.75;3.08;;;;;;;9.72;100.00;101417.38;5090184;28;20157;-79
2023/01/01 08:36:15;;;;;;;10.80;3.50;;;;;;;9.71;100.00;101400.91;5091239;28;20527;-79
2023/01/01 08:38:41;;;;;;;12.55;3.58;;;;;;;9.74;100.00;101426.00;5092886;28;20030;-78
2023/01/01 08:41:06;;;;;;;12.88;4.07;;;;;;;9.71;100.00;101431.25;5091768;28;20024;-78
2023/01/01 08:43:32;;;;;;;12.65;3.47;;;;;;;9.66;100.00;101438.25;5086664;28;20115;-79
2023/01/01 08:45:57;;;;;;;13.52;3.92;;;;;;;9.61;100.00;101426.16;5092028;28;20380;-79
2023/01/01 08:48:22;;;;;;;13.52;3.22;;;;;;;9.73;100.00;101439.91;5091294;28;20046;-79
2023/01/01 08:50:52;;;;;;;11.60;3.22;;;;;;;9.76;100.00;101413.84;5092270;28;20077;-79
2023/01/01 08:53:17;;;;;;;15.45;3.80;;;;;;;9.75;100.00;101426.00;5092740;28;20345;-79
2023/01/01 08:55:43;;;;;;;8.07;3.97;;;;;;;9.75;100.00;101443.38;5089328;28;20039;-79
2023/01/01 08:58:08;;;;;;;13.07;3.58;;;;;;;9.71;100.00;101442.56;5091217;28;20028;-78
2023/01/01 09:00:33;;;;;;;16.58;3.40;;;;;;;9.74;100.00;101449.44;5090062;28;20114;-79
2023/01/01 09:02:59;;;;;;;19.45;3.95;;;;;;;9.76;100.00;101440.75;5089197;28;20028;-79
2023/01/01 09:05:24;;;;;;;13.52;3.65;;;;;;;9.82;100.00;101435.47;5089882;28;20027;-79
2023/01/01 09:07:49;;;;;;;10.18;4.32;;;;;;;9.85;100.00;101422.44;5091157;28;20078;-79
2023/01/01 09:10:15;;;;;;;14.05;3.67;;;;;;;9.94;100.00;101437.09;5091640;28;20020;-79
2023/01/01 09:12:40;;;;;;;13.07;4.85;;;;;;;9.95;100.00;101436.19;5092585;28;20472;-79
2023/01/01 09:15:06;;;;;;;15.65;4.43;;;;;;;9.98;100.00;101448.34;5090105;28;20487;-78
2023/01/01 09:17:31;;;;;;;13.73;4.68;;;;;;;10.00;100.00;101454.38;5091687;28;20032;-79
2023/01/01 09:19:56;;;;;;;15.02;4.45;;;;;;;9.98;100.00;101451.81;5091706;28;20497;-78
2023/01/01 09:22:22;;;;;;;17.15;5.47;;;;;;;9.99;100.00;101458.72;5088776;28;20051;-78
2023/01/01 09:24:47;;;;;;;13.35;4.05;;;;;;;10.04;100.00;101445.66;5094642;28;20041;-79
2023/01/01 09:27:12;;;;;;;11.63;4.07;;;;;;;9.99;100.00;101437.88;5110800;28;20076;-78
2023/01/01 09:29:37;;;;;;;14.15;4.88;;;;;;;10.05;100.00;101439.56;5106918;28;20023;-78
2023/01/01 09:32:03;;;;;;;10.13;4.40;;;;;;;10.05;100.00;101440.44;5108900;28;20075;-78
2023/01/01 09:34:28;;;;;;;16.15;4.75;;;;;;;10.03;100.00;101450.00;5110427;28;20063;-78
2023/01/01 09:36:54;;;;;;;11.07;4.43;;;;;;;9.93;100.00;101464.00;5109987;28;20471;-78
2023/01/01 09:39:19;;;;;;;15.38;4.40;;;;;;;9.85;100.00;101458.03;5111000;28;20023;-78
2023/01/01 09:42:00;;;;;;;15.55;4.60;;;;;;;9.80;100.00;101467.63;5112415;28;20059;-78
2023/01/01 09:44:28;;;;;;;10.65;4.30;;;;;;;9.72;100.00;101461.63;5107328;28;20393;-78
2023/01/01 09:46:58;;;;;;;15.35;4.90;;;;;;;9.66;100.00;101459.94;5112240;28;20037;-78
2023/01/01 09:49:37;;;;;;;15.10;5.20;;;;;;;9.53;100.00;101447.94;5111725;28;20092;-79
2023/01/01 09:52:04;;;;;;;18.50;5.95;;;;;;;9.52;100.00;101457.47;5110180;28;20032;-78
2023/01/01 09:54:36;;;;;;;14.00;4.90;;;;;;;9.53;100.00;101473.97;5110766;28;20027;-79
2023/01/01 09:57:07;;;;;;;10.75;5.18;;;;;;;9.46;100.00;101473.16;5109562;28;20391;-80
2023/01/01 09:59:33;;;;;;;12.20;4.80;;;;;;;9.45;100.00;101471.44;5110562;28;20034;-80
2023/01/01 10:02:13;;;;;;;19.73;6.03;;;;;;;9.43;100.00;101457.56;5110882;28;20027;-79
2023/01/01 10:04:44;;;;;;;13.45;5.07;;;;;;;9.46;100.00;101469.69;5111196;28;20054;-80
2023/01/01 10:07:28;;;;;;;15.52;5.60;;;;;;;9.42;100.00;101466.25;5113239;28;20027;-79
2023/01/01 10:09:59;;;;;;;19.40;5.97;;;;;;;9.42;100.00;101476.66;5115105;28;20051;-79
2023/01/01 10:12:37;;;;;;;14.07;5.80;;;;;;;9.32;100.00;101467.22;5115026;28;20034;-79
2023/01/01 10:15:08;;;;;;;16.08;5.68;;;;;;;9.41;100.00;101466.25;5115865;28;20054;-79
2023/01/01 10:17:40;;;;;;;16.80;6.15;;;;;;;9.44;100.00;101466.22;5116166;28;20034;-80
2023/01/01 10:20:27;;;;;;;15.82;6.30;;;;;;;9.44;100.00;101468.81;5114959;28;20042;-79
2023/01/01 10:23:01;;;;;;;11.88;5.45;;;;;;;9.41;100.00;101461.91;5115360;28;20023;-79
2023/01/01 10:25:31;;;;;;;15.75;6.22;;;;;;;9.49;100.00;101472.25;5112807;28;20540;-79
2023/01/01 10:28:06;;;;;;;15.60;6.20;;;;;;;9.53;100.00;101474.81;5114963;28;20027;-80
2023/01/01 10:30:31;;;;;;;18.17;6.05;;;;;;;9.42;100.00;101458.44;5114813;28;20028;-81
2023/01/01 10:32:58;;;;;;;14.00;6.00;;;;;;;9.54;100.00;101475.66;5112515;28;20027;-80
2023/01/01 10:35:40;;;;;;;18.25;6.43;;;;;;;9.57;100.00;101473.91;5114289;28;20024;-76
2023/01/01 10:38:06;;;;;;;24.37;6.50;;;;;;;9.63;100.00;101470.38;5113579;28;20032;-80
2023/01/01 10:40:32;;;;;;;14.52;6.10;;;;;;;9.60;100.00;101468.66;5114422;28;20073;-79
2023/01/01 10:43:00;;;;;;;18.73;5.43;;;;;;;9.61;100.00;101465.22;5114648;28;20050;-80
2023/01/01 10:45:35;;;;;;;21.48;6.20;;;;;;;9.69;100.00;101470.34;5114699;28;20160;-80
2023/01/01 10:48:29;;;;;;;13.85;5.95;;;;;;;9.75;100.00;101459.00;5094650;28;20028;-80
2023/01/01 10:50:58;;;;;;;14.23;5.30;;;;;;;9.84;100.00;101466.69;5109141;28;20035;-78
2023/01/01 10:53:32;;;;;;;18.55;6.07;;;;;;;9.84;100.00;101453.66;5114378;28;20020;-79
2023/01/01 10:56:10;;;;;;;16.60;5.25;;;;;;;9.87;100.00;101456.25;5115211;28;20039;-79
2023/01/01 10:58:47;;;;;;;16.40;5.65;;;;;;;9.89;100.00;101457.09;5115429;28;20035;-79
2023/01/01 11:01:39;;;;;;;12.60;5.25;;;;;;;9.99;100.00;101453.50;5108999;28;20023;-79
2023/01/01 11:04:07;;;;;;;13.27;5.10;;;;;;;10.06;100.00;101452.56;5104222;28;20493;-80
2023/01/01 11:06:45;;;;;;;16.73;4.80;;;;;;;10.07;100.00;101461.22;5114422;28;20550;-79
2023/01/01 11:09:35;;;;;;;16.00;5.20;;;;;;;10.15;100.00;101468.97;5113900;28;20030;-80
2023/01/01 11:12:03;;;;;;;16.17;4.40;;;;;;;10.15;100.00;101459.41;5107893;28;20042;-79
2023/01/01 11:14:47;;;;;;;14.30;4.43;;;;;;;10.20;100.00;101470.66;5113674;28;20035;-80
2023/01/01 11:17:20;;;;;;;14.35;4.30;;;;;;;10.28;100.00;101468.84;5102304;28;20034;-79
2023/01/01 11:19:48;;;;;;;15.68;4.78;;;;;;;10.37;100.00;101477.44;5114254;28;20494;-79
2023/01/01 11:22:36;;;;;;;15.00;4.20;;;;;;;10.38;100.00;101493.03;5113693;28;20034;-79
2023/01/01 11:25:15;;;;;;;16.52;4.53;;;;;;;10.39;100.00;101504.34;5114660;28;20437;-79
2023/01/01 11:27:40;;;;;;;14.93;4.15;;;;;;;10.42;100.00;101499.94;5111809;28;20043;-79
2023/01/01 11:30:17;;;;;;;11.50;4.28;;;;;;;10.47;100.00;101492.09;5113667;28;20363;-79
2023/01/01 11:32:43;;;;;;;12.85;3.67;;;;;;;10.43;100.00;101470.41;5112349;28;20032;-79
2023/01/01 11:35:16;;;;;;;11.70;3.67;;;;;;;10.57;100.00;101482.41;5114347;28;20528;-79